sensor_id;sensor_type;location;lat;lon;timestamp;pressure;altitude;pressure_sealevel;temperature
8533;BMP280;4304;53.876;10.662;2022-08-07T00:00:21;114956.66;;;-139.81
8533;BMP280;4304;53.876;10.662;2022-08-07T00:02:46;115216.22;;;-139.81
8533;BMP280;4304;53.876;10.662;2022-08-07T00:05:11;115216.22;;;-139.81
8533;BMP280;4304;53.876;10.662;2022-08-07T00:07:37;115216.22;;;-139.81
8533;BMP280;4304;53.876;10.662;2022-08-07T00:10:03;115216.22;;;-139.81
8533;BMP280;4304;53.876;10.662;2022-08-07T00:12:29;115216.22;;;-139.81
8533;BMP280;4304;53.876;10.662;2022-08-07T00:14:55;114956.66;;;-139.81
8533;BMP280;4304;53.876;10.662;2022-08-07T00:17:21;114956.66;;;-139.81
8533;BMP280;4304;53.876;10.662;2022-08-07T00:19:46;114956.66;;;-139.81
8533;BMP280;4304;53.876;10.662;2022-08-07T00:22:11;114956.66;;;-139.81
8533;BMP280;4304;53.876;10.662;2022-08-07T00:24:37;114956.66;;;-139.81
8533;BMP280;4304;53.876;10.662;2022-08-07T00:27:02;114956.66;;;-139.81
8533;BMP280;4304;53.876;10.662;2022-08-07T00:29:27;114956.66;;;-139.81
8533;BMP280;4304;53.876;10.662;2022-08-07T00:31:54;114956.66;;;-139.81
8533;BMP280;4304;53.876;10.662;2022-08-07T00:34:24;114956.66;;;-139.81
8533;BMP280;4304;53.876;10.662;2022-08-07T00:36:49;114956.66;;;-139.81
8533;BMP280;4304;53.876;10.662;2022-08-07T00:39:15;114956.66;;;-139.81
8533;BMP280;4304;53.876;10.662;2022-08-07T00:41:47;114956.66;;;-139.81
8533;BMP280;4304;53.876;10.662;2022-08-07T00:44:13;114956.66;;;-139.81
8533;BMP280;4304;53.876;10.662;2022-08-07T00:46:38;114956.66;;;-139.81
8533;BMP280;4304;53.876;10.662;2022-08-07T00:49:03;114956.66;;;-139.81
8533;BMP280;4304;53.876;10.662;2022-08-07T00:51:29;114956.66;;;-139.81
8533;BMP280;4304;53.876;10.662;2022-08-07T00:53:54;114956.66;;;-139.81
8533;BMP280;4304;53.876;10.662;2022-08-07T00:56:21;114956.66;;;-139.81
8533;BMP280;4304;53.876;10.662;2022-08-07T00:58:46;114956.66;;;-139.81
8533;BMP280;4304;53.876;10.662;2022-08-07T01:01:11;114956.66;;;-139.81
8533;BMP280;4304;53.876;10.662;2022-08-07T01:03:37;114956.66;;;-139.81
8533;BMP280;4304;53.876;10.662;2022-08-07T01:06:03;114956.66;;;-139.81
8533;BMP280;4304;53.876;10.662;2022-08-07T01:08:28;114956.66;;;-139.81
8533;BMP280;4304;53.876;10.662;2022-08-07T01:10:54;114956.66;;;-139.81
8533;BMP280;4304;53.876;10.662;2022-08-07T01:13:19;114697.09;;;-139.81
8533;BMP280;4304;53.876;10.662;2022-08-07T01:15:46;114697.09;;;-139.81
8533;BMP280;4304;53.876;10.662;2022-08-07T01:18:13;114697.09;;;-139.81
8533;BMP280;4304;53.876;10.662;2022-08-07T01:20:45;114697.09;;;-139.81
8533;BMP280;4304;53.876;10.662;2022-08-07T01:23:12;114697.09;;;-139.81
8533;BMP280;4304;53.876;10.662;2022-08-07T01:25:37;114697.09;;;-139.81
8533;BMP280;4304;53.876;10.662;2022-08-07T01:28:05;114697.09;;;-139.81
8533;BMP280;4304;53.876;10.662;2022-08-07T01:30:31;114697.09;;;-139.81
8533;BMP280;4304;53.876;10.662;2022-08-07T01:32:56;114697.09;;;-139.81
8533;BMP280;4304;53.876;10.662;2022-08-07T01:35:22;114697.09;;;-139.81
8533;BMP280;4304;53.876;10.662;2022-08-07T01:37:48;114697.09;;;-139.81
8533;BMP280;4304;53.876;10.662;2022-08-07T01:40:15;114697.09;;;-139.81
8533;BMP280;4304;53.876;10.662;2022-08-07T01:42:43;114697.09;;;-139.81
8533;BMP280;4304;53.876;10.662;2022-08-07T01:45:09;114697.09;;;-139.81
8533;BMP280;4304;53.876;10.662;2022-08-07T01:47:35;114697.09;;;-139.81
8533;BMP280;4304;53.876;10.662;2022-08-07T01:50:00;114697.09;;;-139.81
8533;BMP280;4304;53.876;10.662;2022-08-07T01:52:27;114697.09;;;-139.81
8533;BMP280;4304;53.876;10.662;2022-08-07T01:54:56;114697.09;;;-139.81
8533;BMP280;4304;53.876;10.662;2022-08-07T01:57:26;114697.09;;;-139.81
8533;BMP280;4304;53.876;10.662;2022-08-07T02:00:00;114697.09;;;-139.81
8533;BMP280;4304;53.876;10.662;2022-08-07T02:02:30;114697.09;;;-139.81
8533;BMP280;4304;53.876;10.662;2022-08-07T02:05:13;114697.09;;;-139.81
8533;BMP280;4304;53.876;10.662;2022-08-07T02:07:47;114697.09;;;-139.81
8533;BMP280;4304;53.876;10.662;2022-08-07T02:10:16;114697.09;;;-139.81
8533;BMP280;4304;53.876;10.662;2022-08-07T02:12:44;114697.09;;;-139.81
8533;BMP280;4304;53.876;10.662;2022-08-07T02:15:11;114697.09;;;-139.81
8533;BMP280;4304;53.876;10.662;2022-08-07T02:17:40;114437.56;;;-139.81
8533;BMP280;4304;53.876;10.662;2022-08-07T02:20:07;114437.56;;;-139.81
8533;BMP280;4304;53.876;10.662;2022-08-07T02:22:36;114437.56;;;-139.81
8533;BMP280;4304;53.876;10.662;2022-08-07T02:25:04;114437.56;;;-139.81
8533;BMP280;4304;53.876;10.662;2022-08-07T02:27:31;114437.56;;;-139.81
8533;BMP280;4304;53.876;10.662;2022-08-07T02:29:58;114437.56;;;-139.81
8533;BMP280;4304;53.876;10.662;2022-08-07T02:32:25;114437.56;;;-139.81
8533;BMP280;4304;53.876;10.662;2022-08-07T02:34:51;114437.56;;;-139.81
8533;BMP280;4304;53.876;10.662;2022-08-07T02:37:19;114437.56;;;-139.81
8533;BMP280;4304;53.876;10.662;2022-08-07T02:39:45;114437.56;;;-139.81
8533;BMP280;4304;53.876;10.662;2022-08-07T02:42:12;114437.56;;;-139.81
8533;BMP280;4304;53.876;10.662;2022-08-07T02:44:43;114437.56;;;-139.81
8533;BMP280;4304;53.876;10.662;2022-08-07T02:47:10;114437.56;;;-139.81
8533;BMP280;4304;53.876;10.662;2022-08-07T02:49:35;114437.56;;;-139.81
8533;BMP280;4304;53.876;10.662;2022-08-07T02:52:02;114437.56;;;-139.81
8533;BMP280;4304;53.876;10.662;2022-08-07T02:54:29;114437.56;;;-139.81
8533;BMP280;4304;53.876;10.662;2022-08-07T02:56:59;114437.56;;;-139.81
8533;BMP280;4304;53.876;10.662;2022-08-07T02:59:27;114437.56;;;-139.81
8533;BMP280;4304;53.876;10.662;2022-08-07T03:01:54;114437.56;;;-139.81
8533;BMP280;4304;53.876;10.662;2022-08-07T03:04:21;114437.56;;;-139.81
8533;BMP280;4304;53.876;10.662;2022-08-07T03:06:48;114437.56;;;-139.81
8533;BMP280;4304;53.876;10.662;2022-08-07T03:09:14;114437.56;;;-139.81
8533;BMP280;4304;53.876;10.662;2022-08-07T03:11:43;114437.56;;;-139.81
8533;BMP280;4304;53.876;10.662;2022-08-07T03:14:08;114437.56;;;-139.81
8533;BMP280;4304;53.876;10.662;2022-08-07T03:16:34;114437.56;;;-139.81
8533;BMP280;4304;53.876;10.662;2022-08-07T03:19:00;114437.56;;;-139.81
8533;BMP280;4304;53.876;10.662;2022-08-07T03:21:26;114437.56;;;-139.81
8533;BMP280;4304;53.876;10.662;2022-08-07T03:23:56;114437.56;;;-139.81
8533;BMP280;4304;53.876;10.662;2022-08-07T03:26:24;114437.56;;;-139.81
8533;BMP280;4304;53.876;10.662;2022-08-07T03:28:50;114437.56;;;-139.81
8533;BMP280;4304;53.876;10.662;2022-08-07T03:31:16;114437.56;;;-139.81
8533;BMP280;4304;53.876;10.662;2022-08-07T03:33:45;114437.56;;;-139.81
8533;BMP280;4304;53.876;10.662;2022-08-07T03:36:12;114178.06;;;-139.81
8533;BMP280;4304;53.876;10.662;2022-08-07T03:38:41;114178.06;;;-139.81
8533;BMP280;4304;53.876;10.662;2022-08-07T03:41:09;114437.56;;;-139.81
8533;BMP280;4304;53.876;10.662;2022-08-07T03:43:36;114437.56;;;-139.81
8533;BMP280;4304;53.876;10.662;2022-08-07T03:46:04;114178.06;;;-139.81
8533;BMP280;4304;53.876;10.662;2022-08-07T03:48:32;114437.56;;;-139.81
8533;BMP280;4304;53.876;10.662;2022-08-07T03:50:58;114437.56;;;-139.81
8533;BMP280;4304;53.876;10.662;2022-08-07T03:53:25;114178.06;;;-139.81
8533;BMP280;4304;53.876;10.662;2022-08-07T03:55:50;114178.06;;;-139.81
8533;BMP280;4304;53.876;10.662;2022-08-07T03:58:19;114178.06;;;-139.81
8533;BMP280;4304;53.876;10.662;2022-08-07T04:00:45;114178.06;;;-139.81
8533;BMP280;4304;53.876;10.662;2022-08-07T04:03:11;114437.56;;;-139.81
8533;BMP280;4304;53.876;10.662;2022-08-07T04:05:37;114437.56;;;-139.81
8533;BMP280;4304;53.876;10.662;2022-08-07T04:08:03;114437.56;;;-139.81
8533;BMP280;4304;53.876;10.662;2022-08-07T04:10:29;114437.56;;;-139.81
8533;BMP280;4304;53.876;10.662;2022-08-07T04:12:55;114437.56;;;-139.81
8533;BMP280;4304;53.876;10.662;2022-08-07T04:15:21;114437.56;;;-139.81
8533;BMP280;4304;53.876;10.662;2022-08-07T04:17:46;114437.56;;;-139.81
8533;BMP280;4304;53.876;10.662;2022-08-07T04:20:12;114437.56;;;-139.81
8533;BMP280;4304;53.876;10.662;2022-08-07T04:22:39;114437.56;;;-139.81
8533;BMP280;4304;53.876;10.662;2022-08-07T04:25:05;114437.56;;;-139.81
8533;BMP280;4304;53.876;10.662;2022-08-07T04:27:31;114697.09;;;-139.81
8533;BMP280;4304;53.876;10.662;2022-08-07T04:29:57;114697.09;;;-139.81
8533;BMP280;4304;53.876;10.662;2022-08-07T04:32:23;114697.09;;;-139.81
8533;BMP280;4304;53.876;10.662;2022-08-07T04:34:48;114956.66;;;-139.81
8533;BMP280;4304;53.876;10.662;2022-08-07T04:37:15;114956.66;;;-139.81
8533;BMP280;4304;53.876;10.662;2022-08-07T04:39:41;115216.22;;;-139.81
8533;BMP280;4304;53.876;10.662;2022-08-07T04:42:06;115216.22;;;-139.81
8533;BMP280;4304;53.876;10.662;2022-08-07T04:44:32;115475.81;;;-139.81
8533;BMP280;4304;53.876;10.662;2022-08-07T04:49:48;115735.44;;;-139.81
8533;BMP280;4304;53.876;10.662;2022-08-07T04:52:30;115995.09;;;-139.81
8533;BMP280;4304;53.876;10.662;2022-08-07T04:55:01;115995.09;;;-139.81
8533;BMP280;4304;53.876;10.662;2022-08-07T04:57:42;116254.75;;;-139.81
8533;BMP280;4304;53.876;10.662;2022-08-07T05:00:13;116514.44;;;-139.81
8533;BMP280;4304;53.876;10.662;2022-08-07T05:02:52;116514.44;;;-139.81
8533;BMP280;4304;53.876;10.662;2022-08-07T05:05:22;116514.44;;;-139.81
8533;BMP280;4304;53.876;10.662;2022-08-07T05:07:52;116514.44;;;-139.81
8533;BMP280;4304;53.876;10.662;2022-08-07T05:10:48;116774.16;;;-139.81
8533;BMP280;4304;53.876;10.662;2022-08-07T05:13:17;116774.16;;;-139.81
8533;BMP280;4304;53.876;10.662;2022-08-07T05:15:46;116774.16;;;-139.81
8533;BMP280;4304;53.876;10.662;2022-08-07T05:18:24;116774.16;;;-139.81
8533;BMP280;4304;53.876;10.662;2022-08-07T05:20:58;116774.16;;;-139.81
8533;BMP280;4304;53.876;10.662;2022-08-07T05:26:09;117033.91;;;-139.81
8533;BMP280;4304;53.876;10.662;2022-08-07T05:28:35;117033.91;;;-139.81
8533;BMP280;4304;53.876;10.662;2022-08-07T05:31:02;117033.91;;;-139.81
8533;BMP280;4304;53.876;10.662;2022-08-07T05:33:30;117033.91;;;-139.81
8533;BMP280;4304;53.876;10.662;2022-08-07T05:35:55;117033.91;;;-139.81
8533;BMP280;4304;53.876;10.662;2022-08-07T05:38:21;117293.66;;;-139.81
8533;BMP280;4304;53.876;10.662;2022-08-07T05:40:48;117293.66;;;-139.81
8533;BMP280;4304;53.876;10.662;2022-08-07T05:43:14;117293.66;;;-139.81
8533;BMP280;4304;53.876;10.662;2022-08-07T05:45:41;117293.66;;;-139.81
8533;BMP280;4304;53.876;10.662;2022-08-07T05:48:07;117293.66;;;-139.81
8533;BMP280;4304;53.876;10.662;2022-08-07T05:50:32;117293.66;;;-139.81
8533;BMP280;4304;53.876;10.662;2022-08-07T05:53:00;117293.66;;;-139.81
8533;BMP280;4304;53.876;10.662;2022-08-07T05:55:25;117293.66;;;-139.81
8533;BMP280;4304;53.876;10.662;2022-08-07T05:57:51;117293.66;;;-139.81
8533;BMP280;4304;53.876;10.662;2022-08-07T06:00:17;117295.69;;;-139.81
8533;BMP280;4304;53.876;10.662;2022-08-07T06:02:47;117293.66;;;-139.81
8533;BMP280;4304;53.876;10.662;2022-08-07T06:05:14;117295.69;;;-139.81
8533;BMP280;4304;53.876;10.662;2022-08-07T06:07:39;117295.69;;;-139.81
8533;BMP280;4304;53.876;10.662;2022-08-07T06:10:08;117295.69;;;-139.81
8533;BMP280;4304;53.876;10.662;2022-08-07T06:12:34;117295.69;;;-139.81
8533;BMP280;4304;53.876;10.662;2022-08-07T06:14:59;117295.69;;;-139.81
8533;BMP280;4304;53.876;10.662;2022-08-07T06:17:26;117295.69;;;-139.81
8533;BMP280;4304;53.876;10.662;2022-08-07T06:19:52;117295.69;;;-139.81
8533;BMP280;4304;53.876;10.662;2022-08-07T06:22:18;117295.69;;;-139.81
8533;BMP280;4304;53.876;10.662;2022-08-07T06:24:44;117295.69;;;-139.81
8533;BMP280;4304;53.876;10.662;2022-08-07T06:27:18;117295.69;;;-139.81
8533;BMP280;4304;53.876;10.662;2022-08-07T06:29:44;117295.69;;;-139.81
8533;BMP280;4304;53.876;10.662;2022-08-07T06:32:09;117295.69;;;-139.81
8533;BMP280;4304;53.876;10.662;2022-08-07T06:34:34;117295.69;;;-139.81
8533;BMP280;4304;53.876;10.662;2022-08-07T06:37:00;117295.69;;;-139.81
8533;BMP280;4304;53.876;10.662;2022-08-07T06:39:25;117295.69;;;-139.81
8533;BMP280;4304;53.876;10.662;2022-08-07T06:42:02;117295.69;;;-139.81
8533;BMP280;4304;53.876;10.662;2022-08-07T06:44:29;117295.69;;;-139.81
8533;BMP280;4304;53.876;10.662;2022-08-07T06:46:54;117295.69;;;-139.81
8533;BMP280;4304;53.876;10.662;2022-08-07T06:49:20;117295.69;;;-139.81
8533;BMP280;4304;53.876;10.662;2022-08-07T06:51:46;117295.69;;;-139.81
8533;BMP280;4304;53.876;10.662;2022-08-07T06:54:13;117295.69;;;-139.81
8533;BMP280;4304;53.876;10.662;2022-08-07T06:56:39;117295.69;;;-139.81
8533;BMP280;4304;53.876;10.662;2022-08-07T06:59:20;117295.69;;;-139.81
8533;BMP280;4304;53.876;10.662;2022-08-07T07:01:47;117295.69;;;-139.81
8533;BMP280;4304;53.876;10.662;2022-08-07T07:04:13;117295.69;;;-139.81
8533;BMP280;4304;53.876;10.662;2022-08-07T07:06:39;117295.69;;;-139.81
8533;BMP280;4304;53.876;10.662;2022-08-07T07:09:22;117295.69;;;-139.81
8533;BMP280;4304;53.876;10.662;2022-08-07T07:12:26;117295.69;;;-139.81
8533;BMP280;4304;53.876;10.662;2022-08-07T07:15:06;117295.69;;;-139.81
8533;BMP280;4304;53.876;10.662;2022-08-07T07:20:50;117295.69;;;-139.81
8533;BMP280;4304;53.876;10.662;2022-08-07T07:23:17;117295.69;;;-139.81
8533;BMP280;4304;53.876;10.662;2022-08-07T07:25:43;117295.69;;;-139.81
8533;BMP280;4304;53.876;10.662;2022-08-07T07:28:23;117295.69;;;-139.81
8533;BMP280;4304;53.876;10.662;2022-08-07T07:30:55;117295.69;;;-139.81
8533;BMP280;4304;53.876;10.662;2022-08-07T07:33:22;117295.69;;;-139.81
8533;BMP280;4304;53.876;10.662;2022-08-07T07:35:50;117295.69;;;-139.81
8533;BMP280;4304;53.876;10.662;2022-08-07T07:38:18;117295.69;;;-139.81
8533;BMP280;4304;53.876;10.662;2022-08-07T07:40:45;117295.69;;;-139.81
8533;BMP280;4304;53.876;10.662;2022-08-07T07:43:14;117295.69;;;-139.81
8533;BMP280;4304;53.876;10.662;2022-08-07T07:45:40;117295.69;;;-139.81
8533;BMP280;4304;53.876;10.662;2022-08-07T07:48:09;117295.69;;;-139.81
8533;BMP280;4304;53.876;10.662;2022-08-07T07:50:37;117295.69;;;-139.81
8533;BMP280;4304;53.876;10.662;2022-08-07T07:53:05;117295.69;;;-139.81
8533;BMP280;4304;53.876;10.662;2022-08-07T07:55:31;117295.69;;;-139.81
8533;BMP280;4304;53.876;10.662;2022-08-07T07:57:57;117295.69;;;-139.81
8533;BMP280;4304;53.876;10.662;2022-08-07T08:00:24;117295.69;;;-139.81
8533;BMP280;4304;53.876;10.662;2022-08-07T08:02:52;117295.69;;;-139.81
8533;BMP280;4304;53.876;10.662;2022-08-07T08:05:20;117295.69;;;-139.81
8533;BMP280;4304;53.876;10.662;2022-08-07T08:07:47;117295.69;;;-139.81
8533;BMP280;4304;53.876;10.662;2022-08-07T08:10:13;117295.69;;;-139.81
8533;BMP280;4304;53.876;10.662;2022-08-07T08:12:39;117295.69;;;-139.81
8533;BMP280;4304;53.876;10.662;2022-08-07T08:15:05;117295.69;;;-139.81
8533;BMP280;4304;53.876;10.662;2022-08-07T08:17:34;117295.69;;;-139.81
8533;BMP280;4304;53.876;10.662;2022-08-07T08:20:03;117295.69;;;-139.81
8533;BMP280;4304;53.876;10.662;2022-08-07T08:22:29;117295.69;;;-139.81
8533;BMP280;4304;53.876;10.662;2022-08-07T08:25:16;117295.69;;;-139.81
8533;BMP280;4304;53.876;10.662;2022-08-07T08:28:02;117295.69;;;-139.81
8533;BMP280;4304;53.876;10.662;2022-08-07T08:30:31;117295.69;;;-139.81
8533;BMP280;4304;53.876;10.662;2022-08-07T08:32:58;117295.69;;;-139.81
8533;BMP280;4304;53.876;10.662;2022-08-07T08:35:26;117295.69;;;-139.81
8533;BMP280;4304;53.876;10.662;2022-08-07T08:37:56;117295.69;;;-139.81
8533;BMP280;4304;53.876;10.662;2022-08-07T08:40:30;117295.69;;;-139.81
8533;BMP280;4304;53.876;10.662;2022-08-07T08:43:08;117295.69;;;-139.81
8533;BMP280;4304;53.876;10.662;2022-08-07T08:45:43;117295.69;;;-139.81
8533;BMP280;4304;53.876;10.662;2022-08-07T08:48:39;117295.69;;;-139.81
8533;BMP280;4304;53.876;10.662;2022-08-07T08:54:37;117295.69;;;-139.81
8533;BMP280;4304;53.876;10.662;2022-08-07T08:57:11;117295.69;;;-139.81
8533;BMP280;4304;53.876;10.662;2022-08-07T08:59:46;117295.69;;;-139.81
8533;BMP280;4304;53.876;10.662;2022-08-07T09:08:18;117295.69;;;-139.81
8533;BMP280;4304;53.876;10.662;2022-08-07T09:13:38;117295.69;;;-139.81
8533;BMP280;4304;53.876;10.662;2022-08-07T09:40:37;117295.69;;;-139.81
8533;BMP280;4304;53.876;10.662;2022-08-07T09:43:16;117295.69;;;-139.81
8533;BMP280;4304;53.876;10.662;2022-08-07T09:45:57;117295.69;;;-139.81
8533;BMP280;4304;53.876;10.662;2022-08-07T09:48:41;117295.69;;;-139.81
8533;BMP280;4304;53.876;10.662;2022-08-07T09:54:24;117295.69;;;-139.81
8533;BMP280;4304;53.876;10.662;2022-08-07T10:02:38;117295.69;;;-139.81
8533;BMP280;4304;53.876;10.662;2022-08-07T10:10:51;117295.69;;;-139.81
8533;BMP280;4304;53.876;10.662;2022-08-07T10:21:31;117295.69;;;-139.81
8533;BMP280;4304;53.876;10.662;2022-08-07T10:27:09;117295.69;;;-139.81
8533;BMP280;4304;53.876;10.662;2022-08-07T10:30:13;117295.69;;;-139.81
8533;BMP280;4304;53.876;10.662;2022-08-07T10:41:07;117295.69;;;-139.81
8533;BMP280;4304;53.876;10.662;2022-08-07T10:43:38;117295.69;;;-139.81
8533;BMP280;4304;53.876;10.662;2022-08-07T10:46:18;117295.69;;;-139.81
8533;BMP280;4304;53.876;10.662;2022-08-07T10:54:07;117295.69;;;-139.81
8533;BMP280;4304;53.876;10.662;2022-08-07T10:56:52;117295.69;;;-139.81
8533;BMP280;4304;53.876;10.662;2022-08-07T11:02:07;117295.69;;;-139.81
8533;BMP280;4304;53.876;10.662;2022-08-07T11:04:54;117295.69;;;-139.81
8533;BMP280;4304;53.876;10.662;2022-08-07T11:10:16;117295.69;;;-139.81
8533;BMP280;4304;53.876;10.662;2022-08-07T11:13:22;117295.69;;;-139.81
8533;BMP280;4304;53.876;10.662;2022-08-07T11:15:51;117295.69;;;-139.81
8533;BMP280;4304;53.876;10.662;2022-08-07T11:18:31;117295.69;;;-139.81
8533;BMP280;4304;53.876;10.662;2022-08-07T11:21:10;117295.69;;;-139.81
8533;BMP280;4304;53.876;10.662;2022-08-07T11:29:06;117295.69;;;-139.81
8533;BMP280;4304;53.876;10.662;2022-08-07T11:32:11;117295.69;;;-139.81
8533;BMP280;4304;53.876;10.662;2022-08-07T11:34:48;117295.69;;;-139.81
8533;BMP280;4304;53.876;10.662;2022-08-07T11:40:42;117295.69;;;-139.81
8533;BMP280;4304;53.876;10.662;2022-08-07T11:43:26;117295.69;;;-139.81
8533;BMP280;4304;53.876;10.662;2022-08-07T11:46:10;117295.69;;;-139.81
8533;BMP280;4304;53.876;10.662;2022-08-07T11:54:17;117295.69;;;-139.81
8533;BMP280;4304;53.876;10.662;2022-08-07T11:59:57;117295.69;;;-139.81
8533;BMP280;4304;53.876;10.662;2022-08-07T12:08:21;117295.69;;;-139.81
8533;BMP280;4304;53.876;10.662;2022-08-07T12:10:59;117295.69;;;-139.81
8533;BMP280;4304;53.876;10.662;2022-08-07T12:16:02;117295.69;;;-139.81
8533;BMP280;4304;53.876;10.662;2022-08-07T12:18:37;117295.69;;;-139.81
8533;BMP280;4304;53.876;10.662;2022-08-07T12:24:06;117295.69;;;-139.81
8533;BMP280;4304;53.876;10.662;2022-08-07T12:26:43;117295.69;;;-139.81
8533;BMP280;4304;53.876;10.662;2022-08-07T12:29:16;117295.69;;;-139.81
8533;BMP280;4304;53.876;10.662;2022-08-07T12:32:08;117295.69;;;-139.81
8533;BMP280;4304;53.876;10.662;2022-08-07T12:34:37;117295.69;;;-139.81
8533;BMP280;4304;53.876;10.662;2022-08-07T12:37:04;117295.69;;;-139.81
8533;BMP280;4304;53.876;10.662;2022-08-07T12:39:32;117295.69;;;-139.81
8533;BMP280;4304;53.876;10.662;2022-08-07T12:41:59;117295.69;;;-139.81
8533;BMP280;4304;53.876;10.662;2022-08-07T12:44:27;117295.69;;;-139.81
8533;BMP280;4304;53.876;10.662;2022-08-07T12:49:36;117295.69;;;-139.81
8533;BMP280;4304;53.876;10.662;2022-08-07T12:54:44;117295.69;;;-139.81
8533;BMP280;4304;53.876;10.662;2022-08-07T12:57:12;117295.69;;;-139.81
8533;BMP280;4304;53.876;10.662;2022-08-07T12:59:40;117295.69;;;-139.81
8533;BMP280;4304;53.876;10.662;2022-08-07T13:05:21;117295.69;;;-139.81
8533;BMP280;4304;53.876;10.662;2022-08-07T13:08:16;117295.69;;;-139.81
8533;BMP280;4304;53.876;10.662;2022-08-07T13:13:55;117295.69;;;-139.81
8533;BMP280;4304;53.876;10.662;2022-08-07T13:16:45;117295.69;;;-139.81
8533;BMP280;4304;53.876;10.662;2022-08-07T13:19:29;117295.69;;;-139.81
8533;BMP280;4304;53.876;10.662;2022-08-07T13:22:09;117295.69;;;-139.81
8533;BMP280;4304;53.876;10.662;2022-08-07T13:25:08;117295.69;;;-139.81
8533;BMP280;4304;53.876;10.662;2022-08-07T13:27:46;117295.69;;;-139.81
8533;BMP280;4304;53.876;10.662;2022-08-07T13:30:13;117295.69;;;-139.81
8533;BMP280;4304;53.876;10.662;2022-08-07T13:33:46;117295.69;;;-139.81
8533;BMP280;4304;53.876;10.662;2022-08-07T13:35:56;117295.69;;;-139.81
8533;BMP280;4304;53.876;10.662;2022-08-07T13:38:30;117295.69;;;-139.81
8533;BMP280;4304;53.876;10.662;2022-08-07T13:41:03;117295.69;;;-139.81
8533;BMP280;4304;53.876;10.662;2022-08-07T13:43:31;117295.69;;;-139.81
8533;BMP280;4304;53.876;10.662;2022-08-07T13:46:01;117295.69;;;-139.81
8533;BMP280;4304;53.876;10.662;2022-08-07T13:48:29;117295.69;;;-139.81
8533;BMP280;4304;53.876;10.662;2022-08-07T13:50:57;117295.69;;;-139.81
8533;BMP280;4304;53.876;10.662;2022-08-07T13:53:27;117295.69;;;-139.81
8533;BMP280;4304;53.876;10.662;2022-08-07T13:55:55;117295.69;;;-139.81
8533;BMP280;4304;53.876;10.662;2022-08-07T13:58:23;117295.69;;;-139.81
8533;BMP280;4304;53.876;10.662;2022-08-07T14:01:14;117295.69;;;-139.81
8533;BMP280;4304;53.876;10.662;2022-08-07T14:03:41;117295.69;;;-139.81
8533;BMP280;4304;53.876;10.662;2022-08-07T14:06:09;117295.69;;;-139.81
8533;BMP280;4304;53.876;10.662;2022-08-07T14:08:39;117295.69;;;-139.81
8533;BMP280;4304;53.876;10.662;2022-08-07T14:11:08;117295.69;;;-139.81
8533;BMP280;4304;53.876;10.662;2022-08-07T14:13:36;117295.69;;;-139.81
8533;BMP280;4304;53.876;10.662;2022-08-07T14:16:03;117295.69;;;-139.81
8533;BMP280;4304;53.876;10.662;2022-08-07T14:18:38;117295.69;;;-139.81
8533;BMP280;4304;53.876;10.662;2022-08-07T14:21:10;117295.69;;;-139.81
8533;BMP280;4304;53.876;10.662;2022-08-07T14:23:39;117295.69;;;-139.81
8533;BMP280;4304;53.876;10.662;2022-08-07T14:26:12;117295.69;;;-139.81
8533;BMP280;4304;53.876;10.662;2022-08-07T14:28:42;117295.69;;;-139.81
8533;BMP280;4304;53.876;10.662;2022-08-07T14:31:09;117295.69;;;-139.81
8533;BMP280;4304;53.876;10.662;2022-08-07T14:33:35;117295.69;;;-139.81
8533;BMP280;4304;53.876;10.662;2022-08-07T14:36:02;117295.69;;;-139.81
8533;BMP280;4304;53.876;10.662;2022-08-07T14:38:29;117295.69;;;-139.81
8533;BMP280;4304;53.876;10.662;2022-08-07T14:41:00;117295.69;;;-139.81
8533;BMP280;4304;53.876;10.662;2022-08-07T14:43:28;117295.69;;;-139.81
8533;BMP280;4304;53.876;10.662;2022-08-07T14:45:56;117295.69;;;-139.81
8533;BMP280;4304;53.876;10.662;2022-08-07T14:48:33;117295.69;;;-139.81
8533;BMP280;4304;53.876;10.662;2022-08-07T14:51:05;117295.69;;;-139.81
8533;BMP280;4304;53.876;10.662;2022-08-07T14:53:36;117295.69;;;-139.81
8533;BMP280;4304;53.876;10.662;2022-08-07T14:56:04;117295.69;;;-139.81
8533;BMP280;4304;53.876;10.662;2022-08-07T14:58:33;117295.69;;;-139.81
8533;BMP280;4304;53.876;10.662;2022-08-07T15:01:00;117295.69;;;-139.81
8533;BMP280;4304;53.876;10.662;2022-08-07T15:03:28;117295.69;;;-139.81
8533;BMP280;4304;53.876;10.662;2022-08-07T15:05:55;117295.69;;;-139.81
8533;BMP280;4304;53.876;10.662;2022-08-07T15:08:24;117295.69;;;-139.81
8533;BMP280;4304;53.876;10.662;2022-08-07T15:10:56;117295.69;;;-139.81
8533;BMP280;4304;53.876;10.662;2022-08-07T15:13:24;117295.69;;;-139.81
8533;BMP280;4304;53.876;10.662;2022-08-07T15:15:55;117295.69;;;-139.81
8533;BMP280;4304;53.876;10.662;2022-08-07T15:18:30;117295.69;;;-139.81
8533;BMP280;4304;53.876;10.662;2022-08-07T15:21:03;117295.69;;;-139.81
8533;BMP280;4304;53.876;10.662;2022-08-07T15:23:31;117295.69;;;-139.81
8533;BMP280;4304;53.876;10.662;2022-08-07T15:26:00;117295.69;;;-139.81
8533;BMP280;4304;53.876;10.662;2022-08-07T15:28:28;117295.69;;;-139.81
8533;BMP280;4304;53.876;10.662;2022-08-07T15:31:02;117295.69;;;-139.81
8533;BMP280;4304;53.876;10.662;2022-08-07T15:33:28;117293.66;;;-139.81
8533;BMP280;4304;53.876;10.662;2022-08-07T15:35:55;117293.66;;;-139.81
8533;BMP280;4304;53.876;10.662;2022-08-07T15:38:30;117293.66;;;-139.81
8533;BMP280;4304;53.876;10.662;2022-08-07T15:41:00;117295.69;;;-139.81
8533;BMP280;4304;53.876;10.662;2022-08-07T15:43:29;117295.69;;;-139.81
8533;BMP280;4304;53.876;10.662;2022-08-07T15:45:57;117295.69;;;-139.81
8533;BMP280;4304;53.876;10.662;2022-08-07T15:48:32;117295.69;;;-139.81
8533;BMP280;4304;53.876;10.662;2022-08-07T15:51:06;117295.69;;;-139.81
8533;BMP280;4304;53.876;10.662;2022-08-07T15:56:09;117295.69;;;-139.81
8533;BMP280;4304;53.876;10.662;2022-08-07T15:58:48;117295.69;;;-139.81
8533;BMP280;4304;53.876;10.662;2022-08-07T16:01:34;117295.69;;;-139.81
8533;BMP280;4304;53.876;10.662;2022-08-07T16:04:02;117295.69;;;-139.81
8533;BMP280;4304;53.876;10.662;2022-08-07T16:06:36;117295.69;;;-139.81
8533;BMP280;4304;53.876;10.662;2022-08-07T16:09:46;117295.69;;;-139.81
8533;BMP280;4304;53.876;10.662;2022-08-07T16:12:19;117295.69;;;-139.81
8533;BMP280;4304;53.876;10.662;2022-08-07T16:23:22;117295.69;;;-139.81